sensor_id;sensor_type;location;lat;lon;timestamp;P1;durP1;ratioP1;P2;durP2;ratioP2
9559;SDS011;4818;50.860;4.648;2022-08-30T00:00:52;5.45;;;1.90;;
9559;SDS011;4818;50.860;4.648;2022-08-30T00:03:30;7.07;;;1.92;;
9559;SDS011;4818;50.860;4.648;2022-08-30T00:05:56;10.25;;;2.20;;
9559;SDS011;4818;50.860;4.648;2022-08-30T00:08:22;5.80;;;1.67;;
9559;SDS011;4818;50.860;4.648;2022-08-30T00:10:49;8.55;;;2.15;;
9559;SDS011;4818;50.860;4.648;2022-08-30T00:13:15;4.38;;;2.00;;
9559;SDS011;4818;50.860;4.648;2022-08-30T00:15:43;5.25;;;1.67;;
9559;SDS011;4818;50.860;4.648;2022-08-30T00:18:09;6.43;;;2.47;;
9559;SDS011;4818;50.860;4.648;2022-08-30T00:20:36;3.40;;;1.52;;
9559;SDS011;4818;50.860;4.648;2022-08-30T00:23:03;7.18;;;2.15;;
9559;SDS011;4818;50.860;4.648;2022-08-30T00:25:29;6.22;;;1.90;;
9559;SDS011;4818;50.860;4.648;2022-08-30T00:27:56;5.75;;;1.80;;
9559;SDS011;4818;50.860;4.648;2022-08-30T00:30:22;4.07;;;1.95;;
9559;SDS011;4818;50.860;4.648;2022-08-30T00:32:48;8.10;;;2.40;;
9559;SDS011;4818;50.860;4.648;2022-08-30T00:35:15;4.68;;;2.05;;
9559;SDS011;4818;50.860;4.648;2022-08-30T00:37:42;7.13;;;1.77;;
9559;SDS011;4818;50.860;4.648;2022-08-30T00:40:09;7.85;;;2.38;;
9559;SDS011;4818;50.860;4.648;2022-08-30T00:42:36;9.00;;;2.85;;
9559;SDS011;4818;50.860;4.648;2022-08-30T00:45:11;10.55;;;2.88;;
9559;SDS011;4818;50.860;4.648;2022-08-30T00:47:37;7.93;;;3.13;;
9559;SDS011;4818;50.860;4.648;2022-08-30T00:50:05;5.05;;;2.50;;
9559;SDS011;4818;50.860;4.648;2022-08-30T00:52:32;7.18;;;2.67;;
9559;SDS011;4818;50.860;4.648;2022-08-30T00:54:59;4.90;;;2.28;;
9559;SDS011;4818;50.860;4.648;2022-08-30T00:57:26;6.03;;;2.75;;
9559;SDS011;4818;50.860;4.648;2022-08-30T00:59:53;6.88;;;2.85;;
9559;SDS011;4818;50.860;4.648;2022-08-30T01:02:20;4.93;;;2.22;;
9559;SDS011;4818;50.860;4.648;2022-08-30T01:04:48;5.45;;;2.33;;
9559;SDS011;4818;50.860;4.648;2022-08-30T01:07:16;7.68;;;2.60;;
9559;SDS011;4818;50.860;4.648;2022-08-30T01:09:42;7.72;;;3.05;;
9559;SDS011;4818;50.860;4.648;2022-08-30T01:12:08;5.43;;;2.70;;
9559;SDS011;4818;50.860;4.648;2022-08-30T01:14:35;9.02;;;3.28;;
9559;SDS011;4818;50.860;4.648;2022-08-30T01:17:01;5.18;;;2.30;;
9559;SDS011;4818;50.860;4.648;2022-08-30T01:22:07;6.95;;;3.20;;
9559;SDS011;4818;50.860;4.648;2022-08-30T01:24:35;8.27;;;2.58;;
9559;SDS011;4818;50.860;4.648;2022-08-30T01:27:02;9.27;;;3.08;;
9559;SDS011;4818;50.860;4.648;2022-08-30T01:29:28;12.38;;;4.05;;
9559;SDS011;4818;50.860;4.648;2022-08-30T01:31:54;8.05;;;3.92;;
9559;SDS011;4818;50.860;4.648;2022-08-30T01:34:21;9.18;;;3.15;;
9559;SDS011;4818;50.860;4.648;2022-08-30T01:36:47;7.00;;;3.70;;
9559;SDS011;4818;50.860;4.648;2022-08-30T01:39:15;7.53;;;3.45;;
9559;SDS011;4818;50.860;4.648;2022-08-30T01:41:41;6.55;;;2.72;;
9559;SDS011;4818;50.860;4.648;2022-08-30T01:44:09;11.77;;;3.47;;
9559;SDS011;4818;50.860;4.648;2022-08-30T01:46:37;12.43;;;3.78;;
9559;SDS011;4818;50.860;4.648;2022-08-30T01:49:05;7.55;;;3.10;;
9559;SDS011;4818;50.860;4.648;2022-08-30T01:51:31;5.88;;;3.33;;
9559;SDS011;4818;50.860;4.648;2022-08-30T01:53:58;11.82;;;3.85;;
9559;SDS011;4818;50.860;4.648;2022-08-30T01:56:24;8.60;;;3.50;;
9559;SDS011;4818;50.860;4.648;2022-08-30T01:58:51;9.23;;;3.47;;
9559;SDS011;4818;50.860;4.648;2022-08-30T02:01:18;6.68;;;3.63;;
9559;SDS011;4818;50.860;4.648;2022-08-30T02:03:45;8.52;;;4.00;;
9559;SDS011;4818;50.860;4.648;2022-08-30T02:06:14;10.40;;;4.57;;
9559;SDS011;4818;50.860;4.648;2022-08-30T02:08:40;7.20;;;3.83;;
9559;SDS011;4818;50.860;4.648;2022-08-30T02:11:07;8.15;;;4.45;;
9559;SDS011;4818;50.860;4.648;2022-08-30T02:13:33;5.30;;;3.08;;
9559;SDS011;4818;50.860;4.648;2022-08-30T02:16:01;8.15;;;3.25;;
9559;SDS011;4818;50.860;4.648;2022-08-30T02:18:28;7.07;;;2.85;;
9559;SDS011;4818;50.860;4.648;2022-08-30T02:20:54;6.03;;;3.35;;
9559;SDS011;4818;50.860;4.648;2022-08-30T02:23:20;5.68;;;3.65;;
9559;SDS011;4818;50.860;4.648;2022-08-30T02:25:46;9.48;;;4.03;;
9559;SDS011;4818;50.860;4.648;2022-08-30T02:28:13;9.30;;;3.88;;
9559;SDS011;4818;50.860;4.648;2022-08-30T02:30:40;10.43;;;3.47;;
9559;SDS011;4818;50.860;4.648;2022-08-30T02:33:06;11.52;;;3.80;;
9559;SDS011;4818;50.860;4.648;2022-08-30T02:35:33;6.05;;;3.38;;
9559;SDS011;4818;50.860;4.648;2022-08-30T02:37:59;8.70;;;3.20;;
9559;SDS011;4818;50.860;4.648;2022-08-30T02:40:25;8.35;;;3.50;;
9559;SDS011;4818;50.860;4.648;2022-08-30T02:42:51;6.57;;;3.15;;
9559;SDS011;4818;50.860;4.648;2022-08-30T02:45:17;8.20;;;3.90;;
9559;SDS011;4818;50.860;4.648;2022-08-30T02:47:43;8.75;;;3.65;;
9559;SDS011;4818;50.860;4.648;2022-08-30T02:50:10;8.43;;;3.83;;
9559;SDS011;4818;50.860;4.648;2022-08-30T02:52:36;9.30;;;3.95;;
9559;SDS011;4818;50.860;4.648;2022-08-30T02:55:05;8.30;;;3.42;;
9559;SDS011;4818;50.860;4.648;2022-08-30T02:57:32;9.98;;;3.85;;
9559;SDS011;4818;50.860;4.648;2022-08-30T02:59:58;5.45;;;3.10;;
9559;SDS011;4818;50.860;4.648;2022-08-30T03:02:25;5.30;;;2.85;;
9559;SDS011;4818;50.860;4.648;2022-08-30T03:04:52;7.15;;;3.42;;
9559;SDS011;4818;50.860;4.648;2022-08-30T03:07:18;6.65;;;2.80;;
9559;SDS011;4818;50.860;4.648;2022-08-30T03:09:44;6.25;;;2.97;;
9559;SDS011;4818;50.860;4.648;2022-08-30T03:12:10;6.80;;;3.40;;
9559;SDS011;4818;50.860;4.648;2022-08-30T03:14:37;6.47;;;3.55;;
9559;SDS011;4818;50.860;4.648;2022-08-30T03:17:04;11.18;;;3.65;;
9559;SDS011;4818;50.860;4.648;2022-08-30T03:19:31;11.50;;;4.38;;
9559;SDS011;4818;50.860;4.648;2022-08-30T03:21:58;9.45;;;3.88;;
9559;SDS011;4818;50.860;4.648;2022-08-30T03:24:24;6.20;;;3.45;;
9559;SDS011;4818;50.860;4.648;2022-08-30T03:26:50;5.95;;;3.13;;
9559;SDS011;4818;50.860;4.648;2022-08-30T03:29:17;6.18;;;3.50;;
9559;SDS011;4818;50.860;4.648;2022-08-30T03:31:44;9.77;;;3.75;;
9559;SDS011;4818;50.860;4.648;2022-08-30T03:34:10;11.00;;;3.67;;
9559;SDS011;4818;50.860;4.648;2022-08-30T03:36:37;7.15;;;3.55;;
9559;SDS011;4818;50.860;4.648;2022-08-30T03:39:04;8.65;;;3.20;;
9559;SDS011;4818;50.860;4.648;2022-08-30T03:41:31;5.80;;;2.80;;
9559;SDS011;4818;50.860;4.648;2022-08-30T03:43:58;10.55;;;3.78;;
9559;SDS011;4818;50.860;4.648;2022-08-30T03:46:24;10.48;;;4.10;;
9559;SDS011;4818;50.860;4.648;2022-08-30T03:48:50;6.22;;;3.40;;
9559;SDS011;4818;50.860;4.648;2022-08-30T03:51:17;9.68;;;3.47;;
9559;SDS011;4818;50.860;4.648;2022-08-30T03:53:43;9.07;;;4.07;;
9559;SDS011;4818;50.860;4.648;2022-08-30T03:56:09;5.55;;;3.22;;
9559;SDS011;4818;50.860;4.648;2022-08-30T03:58:36;6.88;;;4.00;;
9559;SDS011;4818;50.860;4.648;2022-08-30T04:01:02;10.32;;;3.50;;
9559;SDS011;4818;50.860;4.648;2022-08-30T04:03:28;5.38;;;3.35;;
9559;SDS011;4818;50.860;4.648;2022-08-30T04:05:55;7.97;;;3.63;;
9559;SDS011;4818;50.860;4.648;2022-08-30T04:08:22;8.55;;;4.03;;
9559;SDS011;4818;50.860;4.648;2022-08-30T04:10:49;8.07;;;4.15;;
9559;SDS011;4818;50.860;4.648;2022-08-30T04:13:17;11.15;;;4.90;;
9559;SDS011;4818;50.860;4.648;2022-08-30T04:15:43;8.27;;;4.22;;
9559;SDS011;4818;50.860;4.648;2022-08-30T04:18:10;6.75;;;4.28;;
9559;SDS011;4818;50.860;4.648;2022-08-30T04:20:36;10.75;;;5.13;;
9559;SDS011;4818;50.860;4.648;2022-08-30T04:23:03;9.10;;;4.65;;
9559;SDS011;4818;50.860;4.648;2022-08-30T04:25:35;7.20;;;4.43;;
9559;SDS011;4818;50.860;4.648;2022-08-30T04:28:02;8.40;;;4.50;;
9559;SDS011;4818;50.860;4.648;2022-08-30T04:30:29;13.45;;;4.13;;
9559;SDS011;4818;50.860;4.648;2022-08-30T04:32:55;16.48;;;5.35;;
9559;SDS011;4818;50.860;4.648;2022-08-30T04:35:21;6.90;;;4.40;;
9559;SDS011;4818;50.860;4.648;2022-08-30T04:37:47;8.10;;;4.60;;
9559;SDS011;4818;50.860;4.648;2022-08-30T04:40:14;7.78;;;4.07;;
9559;SDS011;4818;50.860;4.648;2022-08-30T04:42:40;9.85;;;4.47;;
9559;SDS011;4818;50.860;4.648;2022-08-30T04:45:11;12.57;;;5.38;;
9559;SDS011;4818;50.860;4.648;2022-08-30T04:47:39;10.80;;;5.20;;
9559;SDS011;4818;50.860;4.648;2022-08-30T04:50:05;19.23;;;5.70;;
9559;SDS011;4818;50.860;4.648;2022-08-30T04:52:32;11.35;;;5.72;;
9559;SDS011;4818;50.860;4.648;2022-08-30T04:54:58;9.98;;;4.85;;
9559;SDS011;4818;50.860;4.648;2022-08-30T04:57:25;6.30;;;4.85;;
9559;SDS011;4818;50.860;4.648;2022-08-30T04:59:52;10.15;;;4.28;;
9559;SDS011;4818;50.860;4.648;2022-08-30T05:02:18;13.13;;;5.28;;
9559;SDS011;4818;50.860;4.648;2022-08-30T05:04:44;16.02;;;5.22;;
9559;SDS011;4818;50.860;4.648;2022-08-30T05:07:30;10.38;;;5.13;;
9559;SDS011;4818;50.860;4.648;2022-08-30T05:09:56;8.48;;;5.18;;
9559;SDS011;4818;50.860;4.648;2022-08-30T05:12:22;9.65;;;4.78;;
9559;SDS011;4818;50.860;4.648;2022-08-30T05:14:49;13.38;;;5.30;;
9559;SDS011;4818;50.860;4.648;2022-08-30T05:17:16;11.93;;;5.57;;
9559;SDS011;4818;50.860;4.648;2022-08-30T05:19:42;11.10;;;6.15;;
9559;SDS011;4818;50.860;4.648;2022-08-30T05:22:08;12.77;;;6.07;;
9559;SDS011;4818;50.860;4.648;2022-08-30T05:24:35;11.35;;;5.88;;
9559;SDS011;4818;50.860;4.648;2022-08-30T05:27:02;13.27;;;5.65;;
9559;SDS011;4818;50.860;4.648;2022-08-30T05:29:29;18.13;;;6.32;;
9559;SDS011;4818;50.860;4.648;2022-08-30T05:31:55;9.60;;;4.90;;
9559;SDS011;4818;50.860;4.648;2022-08-30T05:34:22;7.90;;;5.32;;
9559;SDS011;4818;50.860;4.648;2022-08-30T05:36:48;13.50;;;6.55;;
9559;SDS011;4818;50.860;4.648;2022-08-30T05:39:14;15.75;;;6.93;;
9559;SDS011;4818;50.860;4.648;2022-08-30T05:41:41;12.77;;;6.45;;
9559;SDS011;4818;50.860;4.648;2022-08-30T05:44:08;13.20;;;6.68;;
9559;SDS011;4818;50.860;4.648;2022-08-30T05:46:35;11.43;;;5.13;;
9559;SDS011;4818;50.860;4.648;2022-08-30T05:49:02;9.52;;;5.50;;
9559;SDS011;4818;50.860;4.648;2022-08-30T05:51:29;11.18;;;5.60;;
9559;SDS011;4818;50.860;4.648;2022-08-30T05:53:56;10.75;;;5.53;;
9559;SDS011;4818;50.860;4.648;2022-08-30T05:56:25;8.38;;;4.85;;
9559;SDS011;4818;50.860;4.648;2022-08-30T05:58:55;10.25;;;5.20;;
9559;SDS011;4818;50.860;4.648;2022-08-30T06:01:45;9.25;;;4.85;;
9559;SDS011;4818;50.860;4.648;2022-08-30T06:04:12;6.85;;;4.78;;
9559;SDS011;4818;50.860;4.648;2022-08-30T06:06:40;9.65;;;5.05;;
9559;SDS011;4818;50.860;4.648;2022-08-30T06:09:07;6.93;;;4.25;;
9559;SDS011;4818;50.860;4.648;2022-08-30T06:11:34;8.52;;;4.50;;
9559;SDS011;4818;50.860;4.648;2022-08-30T06:14:00;8.05;;;5.07;;
9559;SDS011;4818;50.860;4.648;2022-08-30T06:16:27;11.07;;;5.35;;
9559;SDS011;4818;50.860;4.648;2022-08-30T06:18:54;10.02;;;5.22;;
9559;SDS011;4818;50.860;4.648;2022-08-30T06:21:22;8.57;;;4.78;;
9559;SDS011;4818;50.860;4.648;2022-08-30T06:23:49;8.40;;;4.45;;
9559;SDS011;4818;50.860;4.648;2022-08-30T06:26:15;10.23;;;5.10;;
9559;SDS011;4818;50.860;4.648;2022-08-30T06:28:42;6.95;;;5.15;;
9559;SDS011;4818;50.860;4.648;2022-08-30T06:31:10;9.90;;;5.00;;
9559;SDS011;4818;50.860;4.648;2022-08-30T06:33:36;7.03;;;5.15;;
9559;SDS011;4818;50.860;4.648;2022-08-30T06:36:03;12.30;;;6.05;;
9559;SDS011;4818;50.860;4.648;2022-08-30T06:38:30;12.93;;;6.20;;
9559;SDS011;4818;50.860;4.648;2022-08-30T06:40:56;10.35;;;5.38;;
9559;SDS011;4818;50.860;4.648;2022-08-30T06:43:22;6.20;;;4.93;;
9559;SDS011;4818;50.860;4.648;2022-08-30T06:45:48;11.70;;;5.75;;
9559;SDS011;4818;50.860;4.648;2022-08-30T06:48:15;7.70;;;5.07;;
9559;SDS011;4818;50.860;4.648;2022-08-30T06:50:41;9.57;;;5.65;;
9559;SDS011;4818;50.860;4.648;2022-08-30T06:53:09;9.85;;;5.85;;
9559;SDS011;4818;50.860;4.648;2022-08-30T06:55:37;11.48;;;5.90;;
9559;SDS011;4818;50.860;4.648;2022-08-30T06:58:04;11.82;;;6.07;;
9559;SDS011;4818;50.860;4.648;2022-08-30T07:00:31;7.97;;;5.22;;
9559;SDS011;4818;50.860;4.648;2022-08-30T07:02:57;9.90;;;5.50;;
9559;SDS011;4818;50.860;4.648;2022-08-30T07:05:23;12.77;;;5.57;;
9559;SDS011;4818;50.860;4.648;2022-08-30T07:07:50;8.77;;;5.03;;
9559;SDS011;4818;50.860;4.648;2022-08-30T07:10:19;7.28;;;5.32;;
9559;SDS011;4818;50.860;4.648;2022-08-30T07:12:46;7.93;;;5.05;;
9559;SDS011;4818;50.860;4.648;2022-08-30T07:15:12;7.25;;;4.53;;
9559;SDS011;4818;50.860;4.648;2022-08-30T07:17:39;7.07;;;4.80;;
9559;SDS011;4818;50.860;4.648;2022-08-30T07:20:24;8.90;;;4.10;;
9559;SDS011;4818;50.860;4.648;2022-08-30T07:22:50;5.72;;;4.28;;
9559;SDS011;4818;50.860;4.648;2022-08-30T07:25:17;8.65;;;4.25;;
9559;SDS011;4818;50.860;4.648;2022-08-30T07:27:46;13.10;;;4.38;;
9559;SDS011;4818;50.860;4.648;2022-08-30T07:30:14;9.05;;;4.40;;
9559;SDS011;4818;50.860;4.648;2022-08-30T07:32:43;6.40;;;3.95;;
9559;SDS011;4818;50.860;4.648;2022-08-30T07:35:09;9.38;;;4.07;;
9559;SDS011;4818;50.860;4.648;2022-08-30T07:37:36;6.55;;;4.00;;
9559;SDS011;4818;50.860;4.648;2022-08-30T07:40:02;7.35;;;3.53;;
9559;SDS011;4818;50.860;4.648;2022-08-30T07:42:29;6.18;;;4.10;;
9559;SDS011;4818;50.860;4.648;2022-08-30T07:44:55;7.75;;;4.15;;
9559;SDS011;4818;50.860;4.648;2022-08-30T07:47:21;5.45;;;4.00;;
9559;SDS011;4818;50.860;4.648;2022-08-30T07:49:47;5.65;;;3.80;;
9559;SDS011;4818;50.860;4.648;2022-08-30T07:52:16;5.85;;;3.30;;
9559;SDS011;4818;50.860;4.648;2022-08-30T07:54:43;6.72;;;3.30;;
9559;SDS011;4818;50.860;4.648;2022-08-30T07:57:09;8.02;;;4.57;;
9559;SDS011;4818;50.860;4.648;2022-08-30T07:59:36;10.40;;;4.10;;
9559;SDS011;4818;50.860;4.648;2022-08-30T08:02:02;7.28;;;3.08;;
9559;SDS011;4818;50.860;4.648;2022-08-30T08:04:28;9.13;;;2.97;;
9559;SDS011;4818;50.860;4.648;2022-08-30T08:06:55;6.70;;;3.08;;
9559;SDS011;4818;50.860;4.648;2022-08-30T08:09:22;4.80;;;2.97;;
9559;SDS011;4818;50.860;4.648;2022-08-30T08:11:48;4.53;;;2.22;;
9559;SDS011;4818;50.860;4.648;2022-08-30T08:14:14;5.03;;;2.30;;
9559;SDS011;4818;50.860;4.648;2022-08-30T08:16:40;5.25;;;2.03;;
9559;SDS011;4818;50.860;4.648;2022-08-30T08:19:09;3.67;;;2.20;;
9559;SDS011;4818;50.860;4.648;2022-08-30T08:21:37;3.78;;;1.92;;
9559;SDS011;4818;50.860;4.648;2022-08-30T08:24:04;3.95;;;1.85;;
9559;SDS011;4818;50.860;4.648;2022-08-30T08:26:32;4.03;;;1.88;;
9559;SDS011;4818;50.860;4.648;2022-08-30T08:28:58;7.53;;;2.13;;
9559;SDS011;4818;50.860;4.648;2022-08-30T08:31:26;4.63;;;2.10;;
9559;SDS011;4818;50.860;4.648;2022-08-30T08:33:53;5.22;;;1.55;;
9559;SDS011;4818;50.860;4.648;2022-08-30T08:36:19;4.57;;;1.70;;
9559;SDS011;4818;50.860;4.648;2022-08-30T08:38:45;6.65;;;1.60;;
9559;SDS011;4818;50.860;4.648;2022-08-30T08:41:20;3.45;;;1.40;;
9559;SDS011;4818;50.860;4.648;2022-08-30T08:43:53;3.67;;;2.08;;
9559;SDS011;4818;50.860;4.648;2022-08-30T08:48:49;5.65;;;1.38;;
9559;SDS011;4818;50.860;4.648;2022-08-30T08:51:17;3.05;;;1.48;;
9559;SDS011;4818;50.860;4.648;2022-08-30T08:54:10;4.45;;;1.50;;
9559;SDS011;4818;50.860;4.648;2022-08-30T08:56:37;4.60;;;1.83;;
9559;SDS011;4818;50.860;4.648;2022-08-30T08:59:04;4.82;;;1.60;;
9559;SDS011;4818;50.860;4.648;2022-08-30T09:01:32;3.83;;;1.73;;
9559;SDS011;4818;50.860;4.648;2022-08-30T09:04:02;5.20;;;1.48;;
9559;SDS011;4818;50.860;4.648;2022-08-30T09:06:42;4.38;;;1.67;;
9559;SDS011;4818;50.860;4.648;2022-08-30T09:09:10;3.03;;;1.50;;
9559;SDS011;4818;50.860;4.648;2022-08-30T09:11:37;6.53;;;1.67;;
9559;SDS011;4818;50.860;4.648;2022-08-30T09:14:08;6.45;;;1.20;;
9559;SDS011;4818;50.860;4.648;2022-08-30T09:17:18;4.07;;;1.13;;
9559;SDS011;4818;50.860;4.648;2022-08-30T09:22:02;4.68;;;2.20;;
9559;SDS011;4818;50.860;4.648;2022-08-30T09:24:36;3.75;;;1.50;;
9559;SDS011;4818;50.860;4.648;2022-08-30T09:27:19;2.30;;;0.82;;
9559;SDS011;4818;50.860;4.648;2022-08-30T09:29:57;9.13;;;1.98;;
9559;SDS011;4818;50.860;4.648;2022-08-30T09:32:24;2.75;;;1.17;;
9559;SDS011;4818;50.860;4.648;2022-08-30T09:34:50;2.70;;;1.10;;
9559;SDS011;4818;50.860;4.648;2022-08-30T09:37:27;4.70;;;1.90;;
9559;SDS011;4818;50.860;4.648;2022-08-30T09:39:54;4.35;;;1.58;;
9559;SDS011;4818;50.860;4.648;2022-08-30T09:42:21;8.27;;;2.03;;
9559;SDS011;4818;50.860;4.648;2022-08-30T09:44:49;4.80;;;1.40;;
9559;SDS011;4818;50.860;4.648;2022-08-30T09:47:20;4.55;;;1.45;;
9559;SDS011;4818;50.860;4.648;2022-08-30T09:49:50;5.30;;;2.08;;
9559;SDS011;4818;50.860;4.648;2022-08-30T09:52:32;2.75;;;1.38;;
9559;SDS011;4818;50.860;4.648;2022-08-30T09:57:56;2.05;;;1.00;;
9559;SDS011;4818;50.860;4.648;2022-08-30T10:00:25;6.43;;;1.63;;
9559;SDS011;4818;50.860;4.648;2022-08-30T10:03:03;3.50;;;1.40;;
9559;SDS011;4818;50.860;4.648;2022-08-30T10:05:36;6.22;;;1.35;;
9559;SDS011;4818;50.860;4.648;2022-08-30T10:08:10;2.22;;;1.30;;
9559;SDS011;4818;50.860;4.648;2022-08-30T10:16:00;4.20;;;1.30;;
9559;SDS011;4818;50.860;4.648;2022-08-30T10:18:36;3.28;;;1.20;;
9559;SDS011;4818;50.860;4.648;2022-08-30T10:23:36;2.22;;;0.75;;
9559;SDS011;4818;50.860;4.648;2022-08-30T10:26:13;3.22;;;0.80;;
9559;SDS011;4818;50.860;4.648;2022-08-30T10:28:44;3.42;;;0.80;;
9559;SDS011;4818;50.860;4.648;2022-08-30T10:34:00;7.85;;;0.95;;
9559;SDS011;4818;50.860;4.648;2022-08-30T10:36:32;6.35;;;0.90;;
9559;SDS011;4818;50.860;4.648;2022-08-30T10:39:01;4.82;;;1.10;;
9559;SDS011;4818;50.860;4.648;2022-08-30T10:41:32;2.65;;;0.90;;
9559;SDS011;4818;50.860;4.648;2022-08-30T10:44:02;4.95;;;1.30;;
9559;SDS011;4818;50.860;4.648;2022-08-30T10:48:58;8.63;;;0.70;;
9559;SDS011;4818;50.860;4.648;2022-08-30T10:51:35;3.83;;;0.80;;
9559;SDS011;4818;50.860;4.648;2022-08-30T10:54:09;6.90;;;1.08;;
9559;SDS011;4818;50.860;4.648;2022-08-30T10:56:36;4.25;;;1.02;;
9559;SDS011;4818;50.860;4.648;2022-08-30T10:59:05;4.68;;;0.93;;
9559;SDS011;4818;50.860;4.648;2022-08-30T11:06:36;3.92;;;0.88;;
9559;SDS011;4818;50.860;4.648;2022-08-30T11:09:08;3.58;;;0.70;;
9559;SDS011;4818;50.860;4.648;2022-08-30T11:16:35;4.57;;;1.05;;
9559;SDS011;4818;50.860;4.648;2022-08-30T11:22:11;5.10;;;0.90;;
9559;SDS011;4818;50.860;4.648;2022-08-30T11:32:58;3.22;;;0.75;;
9559;SDS011;4818;50.860;4.648;2022-08-30T11:58:54;2.88;;;0.65;;
9559;SDS011;4818;50.860;4.648;2022-08-30T12:09:03;6.75;;;0.95;;
9559;SDS011;4818;50.860;4.648;2022-08-30T12:13:59;3.50;;;0.70;;
9559;SDS011;4818;50.860;4.648;2022-08-30T12:19:13;6.95;;;1.48;;
9559;SDS011;4818;50.860;4.648;2022-08-30T12:21:40;8.60;;;1.13;;
9559;SDS011;4818;50.860;4.648;2022-08-30T12:24:17;6.88;;;1.10;;
9559;SDS011;4818;50.860;4.648;2022-08-30T12:26:46;5.53;;;1.27;;
9559;SDS011;4818;50.860;4.648;2022-08-30T12:29:24;3.15;;;1.02;;
9559;SDS011;4818;50.860;4.648;2022-08-30T12:34:18;5.28;;;1.10;;
9559;SDS011;4818;50.860;4.648;2022-08-30T12:39:19;8.07;;;1.27;;
9559;SDS011;4818;50.860;4.648;2022-08-30T12:41:46;4.45;;;0.80;;
9559;SDS011;4818;50.860;4.648;2022-08-30T12:44:14;7.03;;;1.30;;
9559;SDS011;4818;50.860;4.648;2022-08-30T12:46:41;8.27;;;1.25;;
9559;SDS011;4818;50.860;4.648;2022-08-30T12:49:08;5.55;;;1.13;;
9559;SDS011;4818;50.860;4.648;2022-08-30T12:51:37;8.20;;;1.25;;
9559;SDS011;4818;50.860;4.648;2022-08-30T12:54:14;4.13;;;1.30;;
9559;SDS011;4818;50.860;4.648;2022-08-30T12:56:46;2.28;;;0.75;;
9559;SDS011;4818;50.860;4.648;2022-08-30T13:02:09;4.20;;;1.20;;
9559;SDS011;4818;50.860;4.648;2022-08-30T13:04:37;6.10;;;1.23;;
9559;SDS011;4818;50.860;4.648;2022-08-30T13:07:04;3.72;;;1.17;;
9559;SDS011;4818;50.860;4.648;2022-08-30T13:09:31;2.00;;;1.08;;
9559;SDS011;4818;50.860;4.648;2022-08-30T13:12:01;3.03;;;1.10;;
9559;SDS011;4818;50.860;4.648;2022-08-30T13:17:11;4.70;;;1.25;;
9559;SDS011;4818;50.860;4.648;2022-08-30T13:24:58;7.13;;;1.02;;
9559;SDS011;4818;50.860;4.648;2022-08-30T13:27:25;8.27;;;1.10;;
9559;SDS011;4818;50.860;4.648;2022-08-30T13:29:51;4.13;;;1.08;;
9559;SDS011;4818;50.860;4.648;2022-08-30T13:32:18;5.80;;;0.90;;
9559;SDS011;4818;50.860;4.648;2022-08-30T13:34:44;10.57;;;1.00;;
9559;SDS011;4818;50.860;4.648;2022-08-30T13:37:19;3.53;;;1.08;;
9559;SDS011;4818;50.860;4.648;2022-08-30T13:39:45;5.78;;;0.80;;
9559;SDS011;4818;50.860;4.648;2022-08-30T13:42:12;4.43;;;1.33;;
9559;SDS011;4818;50.860;4.648;2022-08-30T13:44:38;8.60;;;1.27;;
9559;SDS011;4818;50.860;4.648;2022-08-30T13:47:04;5.50;;;1.00;;
9559;SDS011;4818;50.860;4.648;2022-08-30T13:49:33;9.75;;;1.33;;
9559;SDS011;4818;50.860;4.648;2022-08-30T13:52:00;4.90;;;1.30;;
9559;SDS011;4818;50.860;4.648;2022-08-30T13:54:26;4.55;;;0.70;;
9559;SDS011;4818;50.860;4.648;2022-08-30T13:56:53;3.55;;;0.82;;
9559;SDS011;4818;50.860;4.648;2022-08-30T13:59:19;5.40;;;1.00;;
9559;SDS011;4818;50.860;4.648;2022-08-30T14:01:46;3.80;;;1.13;;
9559;SDS011;4818;50.860;4.648;2022-08-30T14:04:12;3.08;;;1.13;;
9559;SDS011;4818;50.860;4.648;2022-08-30T14:06:38;3.53;;;0.70;;
9559;SDS011;4818;50.860;4.648;2022-08-30T14:09:05;3.63;;;0.88;;
9559;SDS011;4818;50.860;4.648;2022-08-30T14:11:32;8.25;;;0.80;;
9559;SDS011;4818;50.860;4.648;2022-08-30T14:13:59;7.55;;;1.10;;
9559;SDS011;4818;50.860;4.648;2022-08-30T14:16:25;3.17;;;0.63;;
9559;SDS011;4818;50.860;4.648;2022-08-30T14:18:51;4.45;;;0.82;;
9559;SDS011;4818;50.860;4.648;2022-08-30T14:21:17;2.75;;;0.90;;
9559;SDS011;4818;50.860;4.648;2022-08-30T14:23:44;3.05;;;0.68;;
9559;SDS011;4818;50.860;4.648;2022-08-30T14:26:17;3.00;;;0.70;;
9559;SDS011;4818;50.860;4.648;2022-08-30T14:28:44;2.85;;;0.88;;
9559;SDS011;4818;50.860;4.648;2022-08-30T14:31:11;3.58;;;0.75;;
9559;SDS011;4818;50.860;4.648;2022-08-30T14:33:38;12.65;;;0.88;;
9559;SDS011;4818;50.860;4.648;2022-08-30T14:36:04;4.22;;;0.90;;
9559;SDS011;4818;50.860;4.648;2022-08-30T14:38:31;3.15;;;0.52;;
9559;SDS011;4818;50.860;4.648;2022-08-30T14:40:57;4.15;;;1.00;;
9559;SDS011;4818;50.860;4.648;2022-08-30T14:43:23;2.75;;;0.90;;
9559;SDS011;4818;50.860;4.648;2022-08-30T14:45:49;5.40;;;0.82;;
9559;SDS011;4818;50.860;4.648;2022-08-30T14:48:16;4.85;;;0.60;;
9559;SDS011;4818;50.860;4.648;2022-08-30T14:50:42;3.88;;;1.10;;
9559;SDS011;4818;50.860;4.648;2022-08-30T14:53:08;3.13;;;0.65;;
9559;SDS011;4818;50.860;4.648;2022-08-30T14:55:34;6.60;;;0.60;;
9559;SDS011;4818;50.860;4.648;2022-08-30T14:58:01;6.10;;;0.82;;
9559;SDS011;4818;50.860;4.648;2022-08-30T15:00:27;4.70;;;0.65;;
9559;SDS011;4818;50.860;4.648;2022-08-30T15:02:54;5.35;;;0.43;;
9559;SDS011;4818;50.860;4.648;2022-08-30T15:05:20;4.85;;;1.25;;
9559;SDS011;4818;50.860;4.648;2022-08-30T15:07:47;1.00;;;0.47;;
9559;SDS011;4818;50.860;4.648;2022-08-30T15:10:15;1.75;;;0.50;;
9559;SDS011;4818;50.860;4.648;2022-08-30T15:12:47;5.25;;;0.70;;
9559;SDS011;4818;50.860;4.648;2022-08-30T15:15:14;5.93;;;0.57;;
9559;SDS011;4818;50.860;4.648;2022-08-30T15:17:41;3.13;;;0.57;;
9559;SDS011;4818;50.860;4.648;2022-08-30T15:20:09;2.03;;;0.50;;
9559;SDS011;4818;50.860;4.648;2022-08-30T15:22:35;6.60;;;0.80;;
9559;SDS011;4818;50.860;4.648;2022-08-30T15:25:01;1.75;;;0.40;;
9559;SDS011;4818;50.860;4.648;2022-08-30T15:27:28;6.63;;;0.93;;
9559;SDS011;4818;50.860;4.648;2022-08-30T15:29:54;2.88;;;0.68;;
9559;SDS011;4818;50.860;4.648;2022-08-30T15:32:20;1.92;;;0.50;;
9559;SDS011;4818;50.860;4.648;2022-08-30T15:34:46;10.55;;;0.60;;
9559;SDS011;4818;50.860;4.648;2022-08-30T15:37:12;3.65;;;0.73;;
9559;SDS011;4818;50.860;4.648;2022-08-30T15:39:47;4.32;;;0.95;;
9559;SDS011;4818;50.860;4.648;2022-08-30T15:42:13;3.83;;;0.50;;
9559;SDS011;4818;50.860;4.648;2022-08-30T15:44:40;2.95;;;0.50;;
9559;SDS011;4818;50.860;4.648;2022-08-30T15:47:06;1.80;;;0.68;;
9559;SDS011;4818;50.860;4.648;2022-08-30T15:49:32;4.38;;;0.40;;
9559;SDS011;4818;50.860;4.648;2022-08-30T15:51:59;4.47;;;0.80;;
9559;SDS011;4818;50.860;4.648;2022-08-30T15:54:26;1.83;;;0.50;;
9559;SDS011;4818;50.860;4.648;2022-08-30T15:56:52;3.97;;;0.60;;
9559;SDS011;4818;50.860;4.648;2022-08-30T15:59:29;2.35;;;0.60;;
9559;SDS011;4818;50.860;4.648;2022-08-30T16:01:56;3.63;;;0.50;;
9559;SDS011;4818;50.860;4.648;2022-08-30T16:04:22;5.72;;;0.80;;
9559;SDS011;4818;50.860;4.648;2022-08-30T16:06:48;4.32;;;0.68;;
9559;SDS011;4818;50.860;4.648;2022-08-30T16:09:15;3.40;;;0.75;;
9559;SDS011;4818;50.860;4.648;2022-08-30T16:11:41;6.00;;;0.40;;
9559;SDS011;4818;50.860;4.648;2022-08-30T16:14:08;2.05;;;0.60;;
9559;SDS011;4818;50.860;4.648;2022-08-30T16:16:34;3.45;;;0.65;;
9559;SDS011;4818;50.860;4.648;2022-08-30T16:19:01;3.20;;;0.50;;
9559;SDS011;4818;50.860;4.648;2022-08-30T16:21:29;1.88;;;0.43;;
9559;SDS011;4818;50.860;4.648;2022-08-30T16:23:56;4.25;;;0.88;;
9559;SDS011;4818;50.860;4.648;2022-08-30T16:26:23;5.13;;;0.68;;
9559;SDS011;4818;50.860;4.648;2022-08-30T16:28:50;3.30;;;0.50;;
9559;SDS011;4818;50.860;4.648;2022-08-30T16:31:16;2.33;;;0.40;;
9559;SDS011;4818;50.860;4.648;2022-08-30T16:33:43;3.55;;;0.65;;
9559;SDS011;4818;50.860;4.648;2022-08-30T16:36:10;3.25;;;0.50;;
9559;SDS011;4818;50.860;4.648;2022-08-30T16:38:37;5.13;;;0.80;;
9559;SDS011;4818;50.860;4.648;2022-08-30T16:41:04;4.43;;;0.60;;
9559;SDS011;4818;50.860;4.648;2022-08-30T16:43:31;2.17;;;0.40;;
9559;SDS011;4818;50.860;4.648;2022-08-30T16:45:58;3.83;;;0.50;;
9559;SDS011;4818;50.860;4.648;2022-08-30T16:48:25;8.57;;;0.60;;
9559;SDS011;4818;50.860;4.648;2022-08-30T16:50:52;6.18;;;0.70;;
9559;SDS011;4818;50.860;4.648;2022-08-30T16:53:18;7.32;;;0.52;;